sensor_id;sensor_type;location;lat;lon;timestamp;temperature;humidity
54518;DHT22;40423;53.176;6.002;2022-12-05T00:03:44;5.20;99.90
54518;DHT22;40423;53.176;6.002;2022-12-05T00:06:10;5.20;99.90
54518;DHT22;40423;53.176;6.002;2022-12-05T00:08:36;5.20;99.90
54518;DHT22;40423;53.176;6.002;2022-12-05T00:11:09;5.20;99.90
54518;DHT22;40423;53.176;6.002;2022-12-05T00:13:35;5.20;99.90
54518;DHT22;40423;53.176;6.002;2022-12-05T00:16:01;5.20;99.90
54518;DHT22;40423;53.176;6.002;2022-12-05T00:18:29;5.20;99.90
54518;DHT22;40423;53.176;6.002;2022-12-05T00:20:55;5.20;99.90
54518;DHT22;40423;53.176;6.002;2022-12-05T00:23:21;5.20;99.90
54518;DHT22;40423;53.176;6.002;2022-12-05T00:25:46;5.20;99.90
54518;DHT22;40423;53.176;6.002;2022-12-05T00:28:12;5.20;99.90
54518;DHT22;40423;53.176;6.002;2022-12-05T00:30:41;5.20;99.90
54518;DHT22;40423;53.176;6.002;2022-12-05T00:33:07;5.30;99.90
54518;DHT22;40423;53.176;6.002;2022-12-05T00:35:33;5.20;99.90
54518;DHT22;40423;53.176;6.002;2022-12-05T00:37:58;5.20;99.90
54518;DHT22;40423;53.176;6.002;2022-12-05T00:40:24;5.30;99.90
54518;DHT22;40423;53.176;6.002;2022-12-05T00:42:53;5.30;99.90
54518;DHT22;40423;53.176;6.002;2022-12-05T00:45:19;5.30;99.90
54518;DHT22;40423;53.176;6.002;2022-12-05T00:47:44;5.30;99.90
54518;DHT22;40423;53.176;6.002;2022-12-05T00:50:10;5.30;99.90
54518;DHT22;40423;53.176;6.002;2022-12-05T00:52:36;5.30;99.90
54518;DHT22;40423;53.176;6.002;2022-12-05T00:55:01;5.30;99.90
54518;DHT22;40423;53.176;6.002;2022-12-05T00:57:27;5.30;99.90
54518;DHT22;40423;53.176;6.002;2022-12-05T00:59:53;5.30;99.90
54518;DHT22;40423;53.176;6.002;2022-12-05T01:02:19;5.30;99.90
54518;DHT22;40423;53.176;6.002;2022-12-05T01:04:44;5.40;99.90
54518;DHT22;40423;53.176;6.002;2022-12-05T01:07:10;5.40;99.90
54518;DHT22;40423;53.176;6.002;2022-12-05T01:09:36;5.40;99.90
54518;DHT22;40423;53.176;6.002;2022-12-05T01:12:01;5.50;99.90
54518;DHT22;40423;53.176;6.002;2022-12-05T01:14:27;5.40;99.90
54518;DHT22;40423;53.176;6.002;2022-12-05T01:16:54;5.50;99.90
54518;DHT22;40423;53.176;6.002;2022-12-05T01:19:25;5.40;99.90
54518;DHT22;40423;53.176;6.002;2022-12-05T01:21:52;5.40;99.90
54518;DHT22;40423;53.176;6.002;2022-12-05T01:24:19;5.40;99.90
54518;DHT22;40423;53.176;6.002;2022-12-05T01:26:45;5.40;99.90
54518;DHT22;40423;53.176;6.002;2022-12-05T01:29:12;5.40;99.90
54518;DHT22;40423;53.176;6.002;2022-12-05T01:31:39;5.40;99.90
54518;DHT22;40423;53.176;6.002;2022-12-05T01:34:07;5.40;99.90
54518;DHT22;40423;53.176;6.002;2022-12-05T01:36:33;5.40;99.90
54518;DHT22;40423;53.176;6.002;2022-12-05T01:38:59;5.50;99.90
54518;DHT22;40423;53.176;6.002;2022-12-05T01:41:30;5.50;99.90
54518;DHT22;40423;53.176;6.002;2022-12-05T01:46:32;5.50;99.90
54518;DHT22;40423;53.176;6.002;2022-12-05T01:49:13;5.50;99.90
54518;DHT22;40423;53.176;6.002;2022-12-05T01:51:41;5.50;99.90
54518;DHT22;40423;53.176;6.002;2022-12-05T01:54:08;5.50;99.90
54518;DHT22;40423;53.176;6.002;2022-12-05T01:56:34;5.60;99.90
54518;DHT22;40423;53.176;6.002;2022-12-05T01:59:03;5.60;99.90
54518;DHT22;40423;53.176;6.002;2022-12-05T02:01:32;5.60;99.90
54518;DHT22;40423;53.176;6.002;2022-12-05T02:03:58;5.60;99.90
54518;DHT22;40423;53.176;6.002;2022-12-05T02:06:26;5.60;99.90
54518;DHT22;40423;53.176;6.002;2022-12-05T02:08:52;5.60;99.90
54518;DHT22;40423;53.176;6.002;2022-12-05T02:11:19;5.60;99.90
54518;DHT22;40423;53.176;6.002;2022-12-05T02:24:42;5.70;99.90
54518;DHT22;40423;53.176;6.002;2022-12-05T02:27:40;5.70;99.90
54518;DHT22;40423;53.176;6.002;2022-12-05T02:30:23;5.70;99.90
54518;DHT22;40423;53.176;6.002;2022-12-05T02:36:29;5.70;99.90
54518;DHT22;40423;53.176;6.002;2022-12-05T02:39:04;5.70;99.90
54518;DHT22;40423;53.176;6.002;2022-12-05T02:41:46;5.70;99.90
54518;DHT22;40423;53.176;6.002;2022-12-05T02:44:23;5.70;99.90
54518;DHT22;40423;53.176;6.002;2022-12-05T02:46:54;5.70;99.90
54518;DHT22;40423;53.176;6.002;2022-12-05T02:49:24;5.80;99.90
54518;DHT22;40423;53.176;6.002;2022-12-05T02:51:56;6.00;99.90
54518;DHT22;40423;53.176;6.002;2022-12-05T02:54:28;5.80;99.90
54518;DHT22;40423;53.176;6.002;2022-12-05T02:56:56;5.80;99.90
54518;DHT22;40423;53.176;6.002;2022-12-05T02:59:23;5.80;99.90
54518;DHT22;40423;53.176;6.002;2022-12-05T03:01:49;5.80;99.90
54518;DHT22;40423;53.176;6.002;2022-12-05T03:04:16;5.80;99.90
54518;DHT22;40423;53.176;6.002;2022-12-05T03:06:55;6.00;99.90
54518;DHT22;40423;53.176;6.002;2022-12-05T03:09:27;5.90;99.90
54518;DHT22;40423;53.176;6.002;2022-12-05T03:12:20;5.90;99.90
54518;DHT22;40423;53.176;6.002;2022-12-05T03:14:58;5.90;99.90
54518;DHT22;40423;53.176;6.002;2022-12-05T03:17:29;5.90;99.90
54518;DHT22;40423;53.176;6.002;2022-12-05T03:20:04;5.90;99.90
54518;DHT22;40423;53.176;6.002;2022-12-05T03:22:36;5.90;99.90
54518;DHT22;40423;53.176;6.002;2022-12-05T03:25:03;5.80;99.90
54518;DHT22;40423;53.176;6.002;2022-12-05T03:30:09;5.90;99.90
54518;DHT22;40423;53.176;6.002;2022-12-05T03:33:19;5.90;99.90
54518;DHT22;40423;53.176;6.002;2022-12-05T03:38:26;5.90;99.90
54518;DHT22;40423;53.176;6.002;2022-12-05T03:44:00;5.90;99.90
54518;DHT22;40423;53.176;6.002;2022-12-05T03:51:54;5.90;99.90
54518;DHT22;40423;53.176;6.002;2022-12-05T03:54:52;5.90;99.90
54518;DHT22;40423;53.176;6.002;2022-12-05T03:57:30;5.90;99.90
54518;DHT22;40423;53.176;6.002;2022-12-05T03:59:58;5.90;99.90
54518;DHT22;40423;53.176;6.002;2022-12-05T04:02:52;5.90;99.90
54518;DHT22;40423;53.176;6.002;2022-12-05T04:05:28;5.90;99.90
54518;DHT22;40423;53.176;6.002;2022-12-05T04:08:02;5.80;99.90
54518;DHT22;40423;53.176;6.002;2022-12-05T04:10:32;5.90;99.90
54518;DHT22;40423;53.176;6.002;2022-12-05T04:13:24;6.00;99.90
54518;DHT22;40423;53.176;6.002;2022-12-05T04:15:57;5.90;99.90
54518;DHT22;40423;53.176;6.002;2022-12-05T04:18:49;5.90;99.90
54518;DHT22;40423;53.176;6.002;2022-12-05T04:21:17;5.90;99.90
54518;DHT22;40423;53.176;6.002;2022-12-05T04:24:15;5.90;99.90
54518;DHT22;40423;53.176;6.002;2022-12-05T04:27:22;5.90;99.90
54518;DHT22;40423;53.176;6.002;2022-12-05T04:32:31;5.90;99.90
54518;DHT22;40423;53.176;6.002;2022-12-05T04:35:08;5.90;99.90
54518;DHT22;40423;53.176;6.002;2022-12-05T04:37:39;5.90;99.90
54518;DHT22;40423;53.176;6.002;2022-12-05T04:40:13;5.90;99.90
54518;DHT22;40423;53.176;6.002;2022-12-05T04:42:41;5.90;99.90
54518;DHT22;40423;53.176;6.002;2022-12-05T04:45:11;5.90;99.90
54518;DHT22;40423;53.176;6.002;2022-12-05T04:47:43;5.90;99.90
54518;DHT22;40423;53.176;6.002;2022-12-05T04:50:11;5.90;99.90
54518;DHT22;40423;53.176;6.002;2022-12-05T04:52:39;5.90;99.90
54518;DHT22;40423;53.176;6.002;2022-12-05T04:55:16;5.90;99.90
54518;DHT22;40423;53.176;6.002;2022-12-05T04:58:05;5.90;99.90
54518;DHT22;40423;53.176;6.002;2022-12-05T05:00:49;5.90;99.90
54518;DHT22;40423;53.176;6.002;2022-12-05T05:03:29;5.90;99.90
54518;DHT22;40423;53.176;6.002;2022-12-05T05:05:57;5.90;99.90
54518;DHT22;40423;53.176;6.002;2022-12-05T05:08:26;5.90;99.90
54518;DHT22;40423;53.176;6.002;2022-12-05T05:11:13;5.90;99.90
54518;DHT22;40423;53.176;6.002;2022-12-05T05:13:39;5.90;99.90
54518;DHT22;40423;53.176;6.002;2022-12-05T05:16:06;5.90;99.90
54518;DHT22;40423;53.176;6.002;2022-12-05T05:18:32;5.90;99.90
54518;DHT22;40423;53.176;6.002;2022-12-05T05:20:58;5.90;99.90
54518;DHT22;40423;53.176;6.002;2022-12-05T05:23:24;5.90;99.90
54518;DHT22;40423;53.176;6.002;2022-12-05T05:25:54;5.90;99.90
54518;DHT22;40423;53.176;6.002;2022-12-05T05:28:21;6.00;99.90
54518;DHT22;40423;53.176;6.002;2022-12-05T05:30:47;6.00;99.90
54518;DHT22;40423;53.176;6.002;2022-12-05T05:33:13;6.00;99.90
54518;DHT22;40423;53.176;6.002;2022-12-05T05:35:38;6.00;99.90
54518;DHT22;40423;53.176;6.002;2022-12-05T05:38:04;6.00;99.90
54518;DHT22;40423;53.176;6.002;2022-12-05T05:40:30;6.00;99.90
54518;DHT22;40423;53.176;6.002;2022-12-05T05:42:55;6.00;99.90
54518;DHT22;40423;53.176;6.002;2022-12-05T05:45:21;6.00;99.90
54518;DHT22;40423;53.176;6.002;2022-12-05T05:47:47;6.00;99.90
54518;DHT22;40423;53.176;6.002;2022-12-05T05:50:14;6.00;99.90
54518;DHT22;40423;53.176;6.002;2022-12-05T05:52:40;6.00;99.90
54518;DHT22;40423;53.176;6.002;2022-12-05T05:55:07;6.00;99.90
54518;DHT22;40423;53.176;6.002;2022-12-05T05:57:34;6.00;99.90
54518;DHT22;40423;53.176;6.002;2022-12-05T06:00:00;6.00;99.90
54518;DHT22;40423;53.176;6.002;2022-12-05T06:02:31;6.00;99.90
54518;DHT22;40423;53.176;6.002;2022-12-05T06:04:57;6.00;99.90
54518;DHT22;40423;53.176;6.002;2022-12-05T06:07:23;6.00;99.90
54518;DHT22;40423;53.176;6.002;2022-12-05T06:09:49;6.00;99.90
54518;DHT22;40423;53.176;6.002;2022-12-05T06:12:15;6.00;99.90
54518;DHT22;40423;53.176;6.002;2022-12-05T06:14:43;6.00;99.90
54518;DHT22;40423;53.176;6.002;2022-12-05T06:17:09;6.00;99.90
54518;DHT22;40423;53.176;6.002;2022-12-05T06:19:34;6.00;99.90
54518;DHT22;40423;53.176;6.002;2022-12-05T06:22:00;6.00;99.90
54518;DHT22;40423;53.176;6.002;2022-12-05T06:24:26;6.00;99.90
54518;DHT22;40423;53.176;6.002;2022-12-05T06:26:52;6.00;99.90
54518;DHT22;40423;53.176;6.002;2022-12-05T06:29:20;6.00;99.90
54518;DHT22;40423;53.176;6.002;2022-12-05T06:31:49;6.00;99.90
54518;DHT22;40423;53.176;6.002;2022-12-05T06:34:15;6.00;99.90
54518;DHT22;40423;53.176;6.002;2022-12-05T06:36:41;6.00;99.90
54518;DHT22;40423;53.176;6.002;2022-12-05T06:39:10;6.00;99.90
54518;DHT22;40423;53.176;6.002;2022-12-05T06:41:36;6.00;99.90
54518;DHT22;40423;53.176;6.002;2022-12-05T06:44:04;6.00;99.90
54518;DHT22;40423;53.176;6.002;2022-12-05T06:46:30;6.00;99.90
54518;DHT22;40423;53.176;6.002;2022-12-05T06:48:56;6.00;99.90
54518;DHT22;40423;53.176;6.002;2022-12-05T06:51:25;6.00;99.90
54518;DHT22;40423;53.176;6.002;2022-12-05T06:53:51;6.00;99.90
54518;DHT22;40423;53.176;6.002;2022-12-05T06:56:19;6.00;99.90
54518;DHT22;40423;53.176;6.002;2022-12-05T06:58:46;6.00;99.90
54518;DHT22;40423;53.176;6.002;2022-12-05T07:01:18;6.00;99.90
54518;DHT22;40423;53.176;6.002;2022-12-05T07:06:35;6.00;99.90
54518;DHT22;40423;53.176;6.002;2022-12-05T07:09:01;6.00;99.90
54518;DHT22;40423;53.176;6.002;2022-12-05T07:11:26;6.00;99.90
54518;DHT22;40423;53.176;6.002;2022-12-05T07:13:52;6.00;99.90
54518;DHT22;40423;53.176;6.002;2022-12-05T07:16:18;6.00;99.90
54518;DHT22;40423;53.176;6.002;2022-12-05T07:18:44;6.00;99.90
54518;DHT22;40423;53.176;6.002;2022-12-05T07:21:12;6.00;99.90
54518;DHT22;40423;53.176;6.002;2022-12-05T07:23:39;6.00;99.90
54518;DHT22;40423;53.176;6.002;2022-12-05T07:26:11;6.00;99.90
54518;DHT22;40423;53.176;6.002;2022-12-05T07:28:37;6.10;99.90
54518;DHT22;40423;53.176;6.002;2022-12-05T07:31:08;6.00;99.90
54518;DHT22;40423;53.176;6.002;2022-12-05T07:33:34;6.00;99.90
54518;DHT22;40423;53.176;6.002;2022-12-05T07:36:03;6.00;99.90
54518;DHT22;40423;53.176;6.002;2022-12-05T07:38:30;6.00;99.90
54518;DHT22;40423;53.176;6.002;2022-12-05T07:40:55;6.10;99.90
54518;DHT22;40423;53.176;6.002;2022-12-05T07:43:22;6.10;99.90
54518;DHT22;40423;53.176;6.002;2022-12-05T07:45:48;6.10;99.90
54518;DHT22;40423;53.176;6.002;2022-12-05T07:48:14;6.00;99.90
54518;DHT22;40423;53.176;6.002;2022-12-05T07:50:39;6.10;99.90
54518;DHT22;40423;53.176;6.002;2022-12-05T07:53:05;6.10;99.90
54518;DHT22;40423;53.176;6.002;2022-12-05T07:55:31;6.10;99.90
54518;DHT22;40423;53.176;6.002;2022-12-05T07:57:56;6.10;99.90
54518;DHT22;40423;53.176;6.002;2022-12-05T08:00:22;6.10;99.90
54518;DHT22;40423;53.176;6.002;2022-12-05T08:02:48;6.10;99.90
54518;DHT22;40423;53.176;6.002;2022-12-05T08:05:14;6.10;99.90
54518;DHT22;40423;53.176;6.002;2022-12-05T08:07:40;6.10;99.90
54518;DHT22;40423;53.176;6.002;2022-12-05T08:10:08;6.10;99.90
54518;DHT22;40423;53.176;6.002;2022-12-05T08:12:34;6.10;99.90
54518;DHT22;40423;53.176;6.002;2022-12-05T08:14:59;6.20;99.90
54518;DHT22;40423;53.176;6.002;2022-12-05T08:17:27;6.10;99.90
54518;DHT22;40423;53.176;6.002;2022-12-05T08:19:53;6.10;99.90
54518;DHT22;40423;53.176;6.002;2022-12-05T08:22:19;6.20;99.90
54518;DHT22;40423;53.176;6.002;2022-12-05T08:24:44;6.20;99.90
54518;DHT22;40423;53.176;6.002;2022-12-05T08:27:10;6.20;99.90
54518;DHT22;40423;53.176;6.002;2022-12-05T08:29:36;6.20;99.90
54518;DHT22;40423;53.176;6.002;2022-12-05T08:32:01;6.20;99.90
54518;DHT22;40423;53.176;6.002;2022-12-05T08:34:28;6.20;99.90
54518;DHT22;40423;53.176;6.002;2022-12-05T08:36:53;6.20;99.90
54518;DHT22;40423;53.176;6.002;2022-12-05T08:39:19;6.20;99.90
54518;DHT22;40423;53.176;6.002;2022-12-05T08:41:46;6.20;99.90
54518;DHT22;40423;53.176;6.002;2022-12-05T08:44:12;6.20;99.90
54518;DHT22;40423;53.176;6.002;2022-12-05T08:46:42;6.20;99.90
54518;DHT22;40423;53.176;6.002;2022-12-05T08:49:10;6.20;99.90
54518;DHT22;40423;53.176;6.002;2022-12-05T08:51:36;6.30;99.90
54518;DHT22;40423;53.176;6.002;2022-12-05T08:54:03;6.30;99.90
54518;DHT22;40423;53.176;6.002;2022-12-05T08:56:29;6.30;99.90
54518;DHT22;40423;53.176;6.002;2022-12-05T08:58:55;6.20;99.90
54518;DHT22;40423;53.176;6.002;2022-12-05T09:01:21;6.30;99.90
54518;DHT22;40423;53.176;6.002;2022-12-05T09:03:47;6.30;99.90
54518;DHT22;40423;53.176;6.002;2022-12-05T09:06:17;6.30;99.90
54518;DHT22;40423;53.176;6.002;2022-12-05T09:08:43;6.30;99.90
54518;DHT22;40423;53.176;6.002;2022-12-05T09:11:18;6.30;99.90
54518;DHT22;40423;53.176;6.002;2022-12-05T09:13:45;6.30;99.90
54518;DHT22;40423;53.176;6.002;2022-12-05T09:16:14;6.30;99.90
54518;DHT22;40423;53.176;6.002;2022-12-05T09:18:41;6.30;99.90
54518;DHT22;40423;53.176;6.002;2022-12-05T09:21:16;6.30;99.90
54518;DHT22;40423;53.176;6.002;2022-12-05T09:23:43;6.30;99.90
54518;DHT22;40423;53.176;6.002;2022-12-05T09:26:11;6.30;99.90
54518;DHT22;40423;53.176;6.002;2022-12-05T09:28:37;6.30;99.90
54518;DHT22;40423;53.176;6.002;2022-12-05T09:31:05;6.30;99.90
54518;DHT22;40423;53.176;6.002;2022-12-05T09:33:34;6.30;99.90
54518;DHT22;40423;53.176;6.002;2022-12-05T09:36:20;6.30;99.90
54518;DHT22;40423;53.176;6.002;2022-12-05T09:38:47;6.40;99.90
54518;DHT22;40423;53.176;6.002;2022-12-05T09:44:55;6.40;99.90
54518;DHT22;40423;53.176;6.002;2022-12-05T09:50:20;6.30;99.90
54518;DHT22;40423;53.176;6.002;2022-12-05T10:01:26;6.40;99.90
54518;DHT22;40423;53.176;6.002;2022-12-05T10:17:24;6.40;99.90
54518;DHT22;40423;53.176;6.002;2022-12-05T10:19:52;6.40;99.90
54518;DHT22;40423;53.176;6.002;2022-12-05T10:22:38;6.40;99.90
54518;DHT22;40423;53.176;6.002;2022-12-05T10:25:05;6.40;99.90
54518;DHT22;40423;53.176;6.002;2022-12-05T10:27:35;6.40;99.90
54518;DHT22;40423;53.176;6.002;2022-12-05T10:32:53;6.50;99.90
54518;DHT22;40423;53.176;6.002;2022-12-05T10:37:54;6.50;99.90
54518;DHT22;40423;53.176;6.002;2022-12-05T10:40:21;6.50;99.90
54518;DHT22;40423;53.176;6.002;2022-12-05T10:42:48;6.50;99.90
54518;DHT22;40423;53.176;6.002;2022-12-05T10:45:21;6.20;99.90
54518;DHT22;40423;53.176;6.002;2022-12-05T10:47:48;6.50;99.90
54518;DHT22;40423;53.176;6.002;2022-12-05T10:52:46;6.50;99.90
54518;DHT22;40423;53.176;6.002;2022-12-05T10:55:16;6.50;99.90
54518;DHT22;40423;53.176;6.002;2022-12-05T10:57:42;6.50;99.90
54518;DHT22;40423;53.176;6.002;2022-12-05T11:00:13;6.50;99.90
54518;DHT22;40423;53.176;6.002;2022-12-05T11:02:40;6.50;99.90
54518;DHT22;40423;53.176;6.002;2022-12-05T11:05:07;6.50;99.90
54518;DHT22;40423;53.176;6.002;2022-12-05T11:07:53;6.50;99.90
54518;DHT22;40423;53.176;6.002;2022-12-05T11:10:26;6.50;99.90
54518;DHT22;40423;53.176;6.002;2022-12-05T11:12:56;6.50;99.90
54518;DHT22;40423;53.176;6.002;2022-12-05T11:15:25;6.50;99.90
54518;DHT22;40423;53.176;6.002;2022-12-05T11:17:53;6.50;99.90
54518;DHT22;40423;53.176;6.002;2022-12-05T11:22:50;6.50;99.90
54518;DHT22;40423;53.176;6.002;2022-12-05T11:25:31;6.50;99.90
54518;DHT22;40423;53.176;6.002;2022-12-05T11:27:59;6.50;99.90
54518;DHT22;40423;53.176;6.002;2022-12-05T11:30:27;6.50;99.90
54518;DHT22;40423;53.176;6.002;2022-12-05T11:33:22;6.50;99.90
54518;DHT22;40423;53.176;6.002;2022-12-05T11:35:50;6.50;99.90
54518;DHT22;40423;53.176;6.002;2022-12-05T11:38:19;6.50;99.90
54518;DHT22;40423;53.176;6.002;2022-12-05T11:43:55;6.50;99.90
54518;DHT22;40423;53.176;6.002;2022-12-05T11:46:35;6.50;99.90
54518;DHT22;40423;53.176;6.002;2022-12-05T12:00:22;6.40;99.90
54518;DHT22;40423;53.176;6.002;2022-12-05T12:07:56;6.40;99.90
54518;DHT22;40423;53.176;6.002;2022-12-05T12:21:38;6.40;99.90
54518;DHT22;40423;53.176;6.002;2022-12-05T12:26:46;6.40;99.90
54518;DHT22;40423;53.176;6.002;2022-12-05T12:47:34;6.40;99.90
54518;DHT22;40423;53.176;6.002;2022-12-05T12:50:20;6.40;99.90
54518;DHT22;40423;53.176;6.002;2022-12-05T12:53:14;6.40;99.90
54518;DHT22;40423;53.176;6.002;2022-12-05T12:56:26;6.40;99.90
54518;DHT22;40423;53.176;6.002;2022-12-05T13:02:07;6.40;99.90
54518;DHT22;40423;53.176;6.002;2022-12-05T13:07:45;6.40;99.90
54518;DHT22;40423;53.176;6.002;2022-12-05T13:10:36;6.40;99.90
54518;DHT22;40423;53.176;6.002;2022-12-05T13:13:04;6.40;99.90
54518;DHT22;40423;53.176;6.002;2022-12-05T13:18:01;6.30;99.90
54518;DHT22;40423;53.176;6.002;2022-12-05T13:20:30;6.30;99.90
54518;DHT22;40423;53.176;6.002;2022-12-05T13:22:57;6.30;99.90
54518;DHT22;40423;53.176;6.002;2022-12-05T13:25:28;6.30;99.90
54518;DHT22;40423;53.176;6.002;2022-12-05T13:28:00;6.30;99.90
54518;DHT22;40423;53.176;6.002;2022-12-05T13:30:27;6.30;99.90
54518;DHT22;40423;53.176;6.002;2022-12-05T13:33:06;6.30;99.90
54518;DHT22;40423;53.176;6.002;2022-12-05T13:35:37;6.30;99.90
54518;DHT22;40423;53.176;6.002;2022-12-05T13:38:27;6.30;99.90
54518;DHT22;40423;53.176;6.002;2022-12-05T13:41:13;6.30;99.90
54518;DHT22;40423;53.176;6.002;2022-12-05T13:43:58;6.30;99.90
54518;DHT22;40423;53.176;6.002;2022-12-05T13:46:42;6.30;99.90
54518;DHT22;40423;53.176;6.002;2022-12-05T13:49:44;6.30;99.90
54518;DHT22;40423;53.176;6.002;2022-12-05T13:52:14;6.30;99.90
54518;DHT22;40423;53.176;6.002;2022-12-05T13:54:46;6.30;99.90
54518;DHT22;40423;53.176;6.002;2022-12-05T14:07:46;6.30;99.90
54518;DHT22;40423;53.176;6.002;2022-12-05T14:13:37;6.30;99.90
54518;DHT22;40423;53.176;6.002;2022-12-05T14:26:22;6.30;99.90
54518;DHT22;40423;53.176;6.002;2022-12-05T14:29:20;6.30;99.90
54518;DHT22;40423;53.176;6.002;2022-12-05T14:34:35;6.30;99.90
54518;DHT22;40423;53.176;6.002;2022-12-05T14:39:43;6.20;99.90
54518;DHT22;40423;53.176;6.002;2022-12-05T14:45:16;6.20;99.90
54518;DHT22;40423;53.176;6.002;2022-12-05T14:47:55;6.30;99.90
54518;DHT22;40423;53.176;6.002;2022-12-05T14:50:38;6.30;99.90
54518;DHT22;40423;53.176;6.002;2022-12-05T15:03:54;6.20;99.90
54518;DHT22;40423;53.176;6.002;2022-12-05T15:06:23;6.20;99.90
54518;DHT22;40423;53.176;6.002;2022-12-05T15:08:54;6.20;99.90
54518;DHT22;40423;53.176;6.002;2022-12-05T15:11:23;6.20;99.90
54518;DHT22;40423;53.176;6.002;2022-12-05T15:16:36;6.20;99.90
54518;DHT22;40423;53.176;6.002;2022-12-05T15:19:11;6.20;99.90
54518;DHT22;40423;53.176;6.002;2022-12-05T15:21:42;6.20;99.90
54518;DHT22;40423;53.176;6.002;2022-12-05T15:24:14;6.20;99.90
54518;DHT22;40423;53.176;6.002;2022-12-05T15:32:01;6.20;99.90
54518;DHT22;40423;53.176;6.002;2022-12-05T15:42:30;6.20;99.90
54518;DHT22;40423;53.176;6.002;2022-12-05T15:47:42;6.20;99.90
54518;DHT22;40423;53.176;6.002;2022-12-05T15:53:05;6.20;99.90
54518;DHT22;40423;53.176;6.002;2022-12-05T15:55:45;6.20;99.90
54518;DHT22;40423;53.176;6.002;2022-12-05T15:58:23;6.20;99.90
54518;DHT22;40423;53.176;6.002;2022-12-05T16:00:53;6.20;99.90
54518;DHT22;40423;53.176;6.002;2022-12-05T16:03:34;6.20;99.90
54518;DHT22;40423;53.176;6.002;2022-12-05T16:08:58;6.20;99.90
54518;DHT22;40423;53.176;6.002;2022-12-05T16:11:25;6.20;99.90
54518;DHT22;40423;53.176;6.002;2022-12-05T16:13:54;6.20;99.90
54518;DHT22;40423;53.176;6.002;2022-12-05T16:16:27;6.20;99.90
54518;DHT22;40423;53.176;6.002;2022-12-05T16:18:55;6.20;99.90
54518;DHT22;40423;53.176;6.002;2022-12-05T16:21:30;6.20;99.90
54518;DHT22;40423;53.176;6.002;2022-12-05T16:24:20;6.20;99.90
54518;DHT22;40423;53.176;6.002;2022-12-05T16:27:03;6.20;99.90
54518;DHT22;40423;53.176;6.002;2022-12-05T16:29:34;6.20;99.90
54518;DHT22;40423;53.176;6.002;2022-12-05T16:32:03;6.20;99.90
54518;DHT22;40423;53.176;6.002;2022-12-05T16:34:32;6.20;99.90
54518;DHT22;40423;53.176;6.002;2022-12-05T16:36:58;6.20;99.90
54518;DHT22;40423;53.176;6.002;2022-12-05T16:39:25;6.20;99.90
54518;DHT22;40423;53.176;6.002;2022-12-05T16:41:53;6.20;99.90
54518;DHT22;40423;53.176;6.002;2022-12-05T16:47:25;6.20;99.90
54518;DHT22;40423;53.176;6.002;2022-12-05T16:50:30;6.20;99.90
54518;DHT22;40423;53.176;6.002;2022-12-05T16:55:32;6.20;99.90
54518;DHT22;40423;53.176;6.002;2022-12-05T16:58:01;6.20;99.90
54518;DHT22;40423;53.176;6.002;2022-12-05T17:00:27;6.20;99.90
54518;DHT22;40423;53.176;6.002;2022-12-05T17:02:53;6.20;99.90
54518;DHT22;40423;53.176;6.002;2022-12-05T17:05:18;6.20;99.90
54518;DHT22;40423;53.176;6.002;2022-12-05T17:07:44;6.20;99.90
54518;DHT22;40423;53.176;6.002;2022-12-05T17:10:10;6.10;99.90
54518;DHT22;40423;53.176;6.002;2022-12-05T17:12:35;6.20;99.90
54518;DHT22;40423;53.176;6.002;2022-12-05T17:15:01;6.20;99.90
54518;DHT22;40423;53.176;6.002;2022-12-05T17:17:27;6.20;99.90
54518;DHT22;40423;53.176;6.002;2022-12-05T17:19:52;6.20;99.90
54518;DHT22;40423;53.176;6.002;2022-12-05T17:22:18;6.20;99.90
54518;DHT22;40423;53.176;6.002;2022-12-05T17:24:44;6.20;99.90
54518;DHT22;40423;53.176;6.002;2022-12-05T17:27:10;6.20;99.90
54518;DHT22;40423;53.176;6.002;2022-12-05T17:29:36;6.20;99.90
54518;DHT22;40423;53.176;6.002;2022-12-05T17:32:03;6.20;99.90
54518;DHT22;40423;53.176;6.002;2022-12-05T17:34:29;6.20;99.90
54518;DHT22;40423;53.176;6.002;2022-12-05T17:36:55;6.20;99.90
54518;DHT22;40423;53.176;6.002;2022-12-05T17:39:20;6.20;99.90
54518;DHT22;40423;53.176;6.002;2022-12-05T17:41:46;6.20;99.90
54518;DHT22;40423;53.176;6.002;2022-12-05T17:44:13;6.20;99.90
54518;DHT22;40423;53.176;6.002;2022-12-05T17:46:42;6.20;99.90
54518;DHT22;40423;53.176;6.002;2022-12-05T17:49:12;6.20;99.90
54518;DHT22;40423;53.176;6.002;2022-12-05T17:51:40;6.20;99.90
54518;DHT22;40423;53.176;6.002;2022-12-05T17:54:06;6.20;99.90
54518;DHT22;40423;53.176;6.002;2022-12-05T17:56:32;6.20;99.90
54518;DHT22;40423;53.176;6.002;2022-12-05T17:58:58;6.20;99.90
54518;DHT22;40423;53.176;6.002;2022-12-05T18:01:23;6.20;99.90
54518;DHT22;40423;53.176;6.002;2022-12-05T18:03:49;6.20;99.90
54518;DHT22;40423;53.176;6.002;2022-12-05T18:06:16;6.20;99.90
54518;DHT22;40423;53.176;6.002;2022-12-05T18:08:42;6.20;99.90
54518;DHT22;40423;53.176;6.002;2022-12-05T18:11:11;6.30;99.90
54518;DHT22;40423;53.176;6.002;2022-12-05T18:13:37;6.20;99.90
54518;DHT22;40423;53.176;6.002;2022-12-05T18:16:03;6.20;99.90
54518;DHT22;40423;53.176;6.002;2022-12-05T18:18:29;6.20;99.90
54518;DHT22;40423;53.176;6.002;2022-12-05T18:21:09;6.20;99.90
54518;DHT22;40423;53.176;6.002;2022-12-05T18:23:36;6.20;99.90
54518;DHT22;40423;53.176;6.002;2022-12-05T18:26:04;6.20;99.90
54518;DHT22;40423;53.176;6.002;2022-12-05T18:28:30;6.20;99.90
54518;DHT22;40423;53.176;6.002;2022-12-05T18:31:22;6.20;99.90
54518;DHT22;40423;53.176;6.002;2022-12-05T18:33:47;6.20;99.90
54518;DHT22;40423;53.176;6.002;2022-12-05T18:36:16;6.20;99.90
54518;DHT22;40423;53.176;6.002;2022-12-05T18:38:48;6.20;99.90
54518;DHT22;40423;53.176;6.002;2022-12-05T18:41:14;6.20;99.90
54518;DHT22;40423;53.176;6.002;2022-12-05T18:43:39;6.30;99.90
54518;DHT22;40423;53.176;6.002;2022-12-05T18:46:05;6.20;99.90
54518;DHT22;40423;53.176;6.002;2022-12-05T18:48:32;6.20;99.90
54518;DHT22;40423;53.176;6.002;2022-12-05T18:51:10;6.20;99.90
54518;DHT22;40423;53.176;6.002;2022-12-05T18:53:36;6.20;99.90
54518;DHT22;40423;53.176;6.002;2022-12-05T18:56:04;6.30;99.90
54518;DHT22;40423;53.176;6.002;2022-12-05T18:58:30;6.20;99.90
54518;DHT22;40423;53.176;6.002;2022-12-05T19:01:09;6.20;99.90
54518;DHT22;40423;53.176;6.002;2022-12-05T19:03:36;6.20;99.90
54518;DHT22;40423;53.176;6.002;2022-12-05T19:06:13;6.20;99.90
54518;DHT22;40423;53.176;6.002;2022-12-05T19:08:40;6.20;99.90
54518;DHT22;40423;53.176;6.002;2022-12-05T19:11:09;6.20;99.90
54518;DHT22;40423;53.176;6.002;2022-12-05T19:13:35;6.20;99.90
54518;DHT22;40423;53.176;6.002;2022-12-05T19:16:02;6.20;99.90
54518;DHT22;40423;53.176;6.002;2022-12-05T19:18:28;6.30;99.90
54518;DHT22;40423;53.176;6.002;2022-12-05T19:20:54;6.30;99.90
54518;DHT22;40423;53.176;6.002;2022-12-05T19:23:20;6.30;99.90
54518;DHT22;40423;53.176;6.002;2022-12-05T19:25:45;6.20;99.90
54518;DHT22;40423;53.176;6.002;2022-12-05T19:28:11;6.20;99.90
54518;DHT22;40423;53.176;6.002;2022-12-05T19:30:37;6.20;99.90
54518;DHT22;40423;53.176;6.002;2022-12-05T19:33:03;6.20;99.90
54518;DHT22;40423;53.176;6.002;2022-12-05T19:35:28;6.20;99.90